Accueil
METAR-TAF:

METAR-TAF

Aéroports :

Stillwater, Oklahoma, États-Unis

latitude: 36-09-44N, longitude: 097-05-21W, altitude: 300 m

Observation

Le bulletin a été fait il y a 53 minutes, à 00:53 UTC
Vent 7 kt de est/nord-est
Température 27°C
Humidité 62%
Pression 1017 hPa
Visibilité: 16.1 km
Quelques nuages à une hauteur de 3800 ft

METAR: KSWO 220053Z 07007KT 10SM FEW038 27/19 A3004 RMK AO2 SLP160 T02720189

Heure: 20:46 (01:46 UTC)

Prévision

Le bulletin a été fait il y a 2 heures et 26 minutes, à 23:20 UTC
Prévision valable du 22 à 00 UTC au 22 à 24 UTC
Vent 6 kt de nord-est
Visibilité: 10 km
Nuages épars à une hauteur de 4000 ft
Nuages fragmentés à une hauteur de 25000 ft

TAF: KSWO 212320Z 2200/2224 04006KT P6SM SCT040 BKN250

Observations et prévisions météorologiques de plus de 4000 aéroports (messages METAR et TAF).

Les stations disponibles sont représentées par des disques jaunes et rouges sur la carte.

Passer la souris dessus pour voir le nom de la station.

Cliquer dessus pour voir les observations et prévisions météorologiques.

Pour changer de carte: cliquez sur les boutons verts avec une croix noire pour zoomer, sur le bouton vert avec un tiret pour effectuer un zoom arrière, ou sur les flèches vertes pour les cartes adjacentes.


METAR-TAF: